Time;durP1;ratioP1;P1;durP2;ratioP2;P2;SDS_P1;SDS_P2;PMS_P1;PMS_P2;Temp;Humidity;BMP_temperature;BMP_pressure;BME280_temperature;BME280_humidity;BME280_pressure;Samples;Min_cycle;Max_cycle;Signal;HPM_P1;HPM_P2
2021/08/05 00:02:09;;;;;;;0.98;0.57;;;;;;;;;;5008529;28;20045;-55
2021/08/05 00:04:36;;;;;;;0.50;0.50;;;;;;;;;;4997931;28;20449;-54
2021/08/05 00:07:03;;;;;;;0.75;0.75;;;;;;;;;;5003148;28;20042;-55
2021/08/05 00:09:30;;;;;;;0.60;0.50;;;;;;;;;;4998020;28;20092;-54
2021/08/05 00:11:56;;;;;;;0.82;0.50;;;;;;;;;;5009459;28;20486;-55
2021/08/05 00:14:23;;;;;;;0.73;0.60;;;;;;;;;;5007917;28;20044;-57
2021/08/05 00:16:50;;;;;;;4.18;1.20;;;;;;;;;;5007102;28;20700;-56
2021/08/05 00:19:17;;;;;;;0.60;0.60;;;;;;;;;;5009551;28;20045;-56
2021/08/05 00:21:43;;;;;;;4.68;0.70;;;;;;;;;;5007791;28;20046;-56
2021/08/05 00:24:10;;;;;;;2.28;0.70;;;;;;;;;;4994006;28;20105;-57
2021/08/05 00:26:37;;;;;;;1.90;0.70;;;;;;;;;;5005860;28;20088;-56
2021/08/05 00:29:04;;;;;;;0.60;0.60;;;;;;;;;;5007837;28;20046;-56
2021/08/05 00:31:30;;;;;;;1.42;0.65;;;;;;;;;;5010223;28;20549;-56
2021/08/05 00:33:57;;;;;;;0.63;0.63;;;;;;;;;;5007274;28;20398;-56
2021/08/05 00:36:24;;;;;;;0.70;0.70;;;;;;;;;;5009397;28;20050;-56
2021/08/05 00:38:50;;;;;;;0.63;0.60;;;;;;;;;;5004471;28;20042;-58
2021/08/05 00:41:17;;;;;;;1.63;0.70;;;;;;;;;;5002607;28;20064;-58
2021/08/05 00:43:44;;;;;;;0.60;0.60;;;;;;;;;;5008621;28;20034;-58
2021/08/05 00:46:11;;;;;;;0.60;0.60;;;;;;;;;;5005307;28;20506;-58
2021/08/05 00:48:38;;;;;;;0.82;0.60;;;;;;;;;;5008709;28;20038;-57
2021/08/05 00:51:05;;;;;;;0.50;0.50;;;;;;;;;;5005001;28;20431;-57
2021/08/05 00:53:31;;;;;;;0.60;0.60;;;;;;;;;;5002214;28;20049;-56
2021/08/05 01:00:02;;;;;;;0.63;0.63;;;;;;;;;;5008466;28;20044;-56
2021/08/05 01:02:35;;;;;;;1.75;0.60;;;;;;;;;;5007843;28;20061;-56
2021/08/05 01:05:03;;;;;;;1.30;0.80;;;;;;;;;;5006550;28;20042;-56
2021/08/05 01:07:38;;;;;;;0.70;0.70;;;;;;;;;;5006274;28;20038;-56
2021/08/05 01:10:11;;;;;;;0.60;0.60;;;;;;;;;;4999613;28;20046;-56
2021/08/05 01:12:37;;;;;;;;;;;;;;;;;;5008946;28;20042;-56
2021/08/05 01:15:09;;;;;;;1.05;0.68;;;;;;;;;;5007870;28;20476;-55
2021/08/05 01:17:38;;;;;;;0.70;0.70;;;;;;;;;;5007599;28;20046;-55
2021/08/05 01:20:07;;;;;;;0.80;0.80;;;;;;;;;;4998364;28;20065;-56
2021/08/05 01:22:35;;;;;;;0.70;0.70;;;;;;;;;;5003910;28;20104;-57
2021/08/05 01:25:04;;;;;;;2.03;0.60;;;;;;;;;;4999358;28;20046;-57
2021/08/05 01:27:32;;;;;;;1.02;0.93;;;;;;;;;;5006267;28;20065;-56
2021/08/05 01:29:59;;;;;;;0.70;0.70;;;;;;;;;;5007455;28;20034;-55
2021/08/05 01:32:26;;;;;;;1.17;0.70;;;;;;;;;;5009591;28;20386;-56
2021/08/05 01:34:54;;;;;;;0.77;0.70;;;;;;;;;;5006731;28;20070;-56
2021/08/05 01:37:23;;;;;;;0.70;0.70;;;;;;;;;;5003473;28;20045;-56
2021/08/05 01:39:50;;;;;;;0.70;0.70;;;;;;;;;;5008435;28;20046;-55
2021/08/05 01:42:19;;;;;;;0.90;0.90;;;;;;;;;;4999105;28;20046;-56
2021/08/05 01:44:46;;;;;;;0.60;0.60;;;;;;;;;;5006229;28;20037;-55
2021/08/05 01:47:13;;;;;;;0.98;0.68;;;;;;;;;;5011619;28;20470;-56
2021/08/05 01:49:41;;;;;;;0.70;0.70;;;;;;;;;;5011278;28;20050;-56
2021/08/05 01:52:09;;;;;;;0.60;0.60;;;;;;;;;;5011668;28;20088;-56
2021/08/05 01:54:35;;;;;;;0.70;0.70;;;;;;;;;;5003763;28;20046;-56
2021/08/05 01:57:02;;;;;;;1.20;0.70;;;;;;;;;;4996410;28;20042;-56
2021/08/05 01:59:29;;;;;;;2.35;0.60;;;;;;;;;;5006499;28;20046;-56
2021/08/05 02:01:56;;;;;;;0.82;0.60;;;;;;;;;;5012329;28;20084;-56
2021/08/05 02:04:29;;;;;;;0.60;0.60;;;;;;;;;;5010231;28;20038;-56
2021/08/05 02:06:56;;;;;;;;;;;;;;;;;;5011711;28;20037;-55
2021/08/05 02:09:32;;;;;;;0.70;0.70;;;;;;;;;;5001144;28;19976;-56
2021/08/05 02:11:59;;;;;;;0.65;0.65;;;;;;;;;;5008389;28;20038;-56
2021/08/05 02:14:28;;;;;;;0.70;0.70;;;;;;;;;;5007833;28;20386;-56
2021/08/05 02:16:55;;;;;;;0.70;0.70;;;;;;;;;;5010925;28;20057;-56
2021/08/05 02:19:22;;;;;;;0.70;0.70;;;;;;;;;;5008302;28;20045;-56
2021/08/05 02:21:50;;;;;;;1.65;0.68;;;;;;;;;;5010080;28;20057;-56
2021/08/05 02:24:17;;;;;;;0.70;0.70;;;;;;;;;;5011908;28;20562;-55
2021/08/05 02:26:44;;;;;;;1.27;0.70;;;;;;;;;;5002109;28;20494;-56
2021/08/05 02:29:11;;;;;;;0.70;0.70;;;;;;;;;;4996460;28;20129;-55
2021/08/05 02:31:38;;;;;;;0.60;0.60;;;;;;;;;;5008259;28;20034;-56
2021/08/05 02:34:06;;;;;;;0.73;0.70;;;;;;;;;;5008657;28;20034;-55
2021/08/05 02:36:35;;;;;;;0.80;0.80;;;;;;;;;;5004461;28;20109;-55
2021/08/05 02:39:02;;;;;;;2.53;0.65;;;;;;;;;;5007547;28;20041;-55
2021/08/05 02:41:29;;;;;;;0.60;0.60;;;;;;;;;;5002081;28;20046;-55
2021/08/05 02:43:56;;;;;;;0.73;0.55;;;;;;;;;;5006055;28;20050;-56
2021/08/05 02:46:24;;;;;;;0.60;0.60;;;;;;;;;;4996140;28;20050;-55
2021/08/05 02:48:51;;;;;;;0.55;0.55;;;;;;;;;;5009274;28;20609;-54
2021/08/05 02:51:18;;;;;;;0.60;0.60;;;;;;;;;;5010537;28;20539;-55
2021/08/05 02:53:45;;;;;;;0.57;0.57;;;;;;;;;;4997906;28;20057;-55
2021/08/05 02:56:16;;;;;;;0.50;0.50;;;;;;;;;;5005677;28;20085;-55
2021/08/05 02:58:43;;;;;;;0.60;0.60;;;;;;;;;;5009172;28;20041;-55
2021/08/05 03:01:10;;;;;;;0.55;0.50;;;;;;;;;;5010483;28;20108;-57
2021/08/05 03:03:38;;;;;;;1.35;0.88;;;;;;;;;;5008945;28;20490;-56
2021/08/05 03:06:05;;;;;;;0.63;0.57;;;;;;;;;;4992213;28;20128;-55
2021/08/05 03:08:40;;;;;;;1.35;0.50;;;;;;;;;;5011709;28;20125;-56
2021/08/05 03:11:07;;;;;;;0.50;0.50;;;;;;;;;;5003749;28;20129;-57
2021/08/05 03:13:34;;;;;;;0.60;0.60;;;;;;;;;;5006720;28;20414;-56
2021/08/05 03:16:01;;;;;;;1.52;0.50;;;;;;;;;;5007626;28;20042;-57
2021/08/05 03:18:27;;;;;;;0.60;0.60;;;;;;;;;;5006859;28;20045;-57
2021/08/05 03:20:54;;;;;;;0.70;0.60;;;;;;;;;;5001638;28;20065;-57
2021/08/05 03:23:21;;;;;;;0.60;0.60;;;;;;;;;;5001465;28;20034;-56
2021/08/05 03:25:48;;;;;;;0.60;0.60;;;;;;;;;;4994910;28;20050;-56
2021/08/05 03:28:14;;;;;;;0.60;0.50;;;;;;;;;;5009439;28;20037;-57
2021/08/05 03:30:41;;;;;;;1.08;0.50;;;;;;;;;;5004948;28;20053;-56
2021/08/05 03:33:08;;;;;;;0.57;0.57;;;;;;;;;;5004130;28;20030;-57
2021/08/05 03:35:34;;;;;;;2.25;0.80;;;;;;;;;;5008450;28;20056;-56
2021/08/05 03:38:01;;;;;;;0.65;0.65;;;;;;;;;;4994567;28;20041;-56
2021/08/05 03:40:28;;;;;;;1.05;0.60;;;;;;;;;;5007544;28;20049;-57
2021/08/05 03:42:55;;;;;;;0.88;0.52;;;;;;;;;;5008420;28;20045;-57
2021/08/05 03:45:22;;;;;;;0.60;0.60;;;;;;;;;;5009081;28;20042;-57
2021/08/05 03:47:48;;;;;;;0.50;0.50;;;;;;;;;;5008487;28;20498;-57
2021/08/05 03:50:15;;;;;;;0.50;0.50;;;;;;;;;;5009998;28;20046;-56
2021/08/05 03:52:42;;;;;;;1.45;0.85;;;;;;;;;;5009220;28;20054;-56
2021/08/05 03:55:13;;;;;;;5.88;1.25;;;;;;;;;;5006724;28;20045;-56
2021/08/05 03:57:40;;;;;;;0.70;0.50;;;;;;;;;;5003918;28;20117;-55
2021/08/05 04:00:09;;;;;;;0.57;0.57;;;;;;;;;;5008172;28;20053;-56
2021/08/05 04:02:36;;;;;;;2.95;0.70;;;;;;;;;;4993715;28;20042;-56
2021/08/05 04:05:03;;;;;;;1.67;0.60;;;;;;;;;;5001655;28;20460;-56
2021/08/05 04:07:30;;;;;;;0.60;0.60;;;;;;;;;;4999627;28;20518;-56
2021/08/05 04:09:56;;;;;;;0.57;0.57;;;;;;;;;;5007664;28;20040;-55
2021/08/05 04:12:23;;;;;;;0.75;0.60;;;;;;;;;;5005768;28;20423;-56
2021/08/05 04:14:50;;;;;;;1.48;0.57;;;;;;;;;;5008642;28;20042;-56
2021/08/05 04:17:17;;;;;;;1.67;0.63;;;;;;;;;;5009219;28;20096;-56
2021/08/05 04:19:44;;;;;;;1.27;0.63;;;;;;;;;;5005954;28;20038;-57
2021/08/05 04:22:15;;;;;;;0.70;0.60;;;;;;;;;;5009308;28;20132;-57
2021/08/05 04:24:42;;;;;;;2.60;0.60;;;;;;;;;;5005172;28;20042;-57
2021/08/05 04:27:09;;;;;;;1.17;0.60;;;;;;;;;;4994586;28;20442;-57
2021/08/05 04:29:36;;;;;;;0.70;0.60;;;;;;;;;;5008590;28;20041;-57
2021/08/05 04:32:02;;;;;;;1.17;0.70;;;;;;;;;;5005090;28;20050;-56
2021/08/05 04:34:29;;;;;;;0.75;0.60;;;;;;;;;;5009725;28;20054;-58
2021/08/05 04:36:56;;;;;;;1.30;0.70;;;;;;;;;;5007388;28;20398;-57
2021/08/05 04:39:23;;;;;;;0.60;0.60;;;;;;;;;;5007739;28;20390;-58
2021/08/05 04:41:50;;;;;;;0.50;0.50;;;;;;;;;;5002767;28;20073;-58
2021/08/05 04:44:16;;;;;;;0.90;0.60;;;;;;;;;;5007242;28;20041;-58
2021/08/05 04:46:43;;;;;;;0.60;0.60;;;;;;;;;;5009535;28;20041;-58
2021/08/05 04:49:10;;;;;;;3.75;0.70;;;;;;;;;;5007010;28;20145;-58
2021/08/05 04:51:37;;;;;;;0.82;0.80;;;;;;;;;;5008516;28;20054;-56
2021/08/05 04:54:04;;;;;;;1.10;0.60;;;;;;;;;;4998264;28;20042;-57
2021/08/05 04:56:31;;;;;;;0.57;0.57;;;;;;;;;;5005532;28;20745;-57
2021/08/05 04:58:58;;;;;;;2.05;0.60;;;;;;;;;;5000476;28;20063;-57
2021/08/05 05:01:25;;;;;;;1.48;0.60;;;;;;;;;;5002225;28;20109;-57
2021/08/05 05:03:52;;;;;;;1.35;0.60;;;;;;;;;;4998510;28;20508;-57
2021/08/05 05:06:19;;;;;;;0.70;0.70;;;;;;;;;;4996282;28;20048;-57
2021/08/05 05:08:46;;;;;;;0.73;0.50;;;;;;;;;;5003952;28;20045;-57
2021/08/05 05:11:12;;;;;;;3.83;0.60;;;;;;;;;;4994853;28;20034;-56
2021/08/05 05:13:39;;;;;;;0.73;0.65;;;;;;;;;;5008945;28;20044;-56
2021/08/05 05:16:06;;;;;;;0.60;0.60;;;;;;;;;;5007802;28;20344;-57
2021/08/05 05:18:33;;;;;;;0.60;0.60;;;;;;;;;;4996393;28;20390;-57
2021/08/05 05:20:59;;;;;;;0.60;0.60;;;;;;;;;;5010562;28;20046;-56
2021/08/05 05:23:26;;;;;;;1.35;0.90;;;;;;;;;;5012788;28;20046;-56
2021/08/05 05:25:53;;;;;;;0.98;0.77;;;;;;;;;;5002817;28;20495;-56
2021/08/05 05:28:20;;;;;;;2.00;0.60;;;;;;;;;;5005591;28;20049;-56
2021/08/05 05:30:47;;;;;;;0.60;0.60;;;;;;;;;;5004215;28;20042;-57
2021/08/05 05:33:13;;;;;;;2.25;0.60;;;;;;;;;;5009741;28;20036;-56
2021/08/05 05:35:40;;;;;;;0.95;0.70;;;;;;;;;;5011732;28;20494;-56
2021/08/05 05:38:07;;;;;;;1.02;0.60;;;;;;;;;;5002555;28;20137;-56
2021/08/05 05:40:34;;;;;;;1.10;0.65;;;;;;;;;;5004805;28;20433;-56
2021/08/05 05:43:01;;;;;;;0.70;0.70;;;;;;;;;;5007193;28;20050;-56
2021/08/05 05:45:28;;;;;;;2.10;0.77;;;;;;;;;;5007659;28;20561;-56
2021/08/05 05:47:55;;;;;;;0.90;0.70;;;;;;;;;;4997970;28;20034;-55
2021/08/05 05:50:22;;;;;;;1.48;0.70;;;;;;;;;;5001328;28;20479;-56
2021/08/05 05:52:50;;;;;;;4.13;0.90;;;;;;;;;;5005188;28;20049;-56
2021/08/05 05:55:17;;;;;;;0.80;0.60;;;;;;;;;;5010436;28;20046;-56
2021/08/05 05:57:44;;;;;;;0.70;0.70;;;;;;;;;;5014309;28;20030;-56
2021/08/05 06:00:11;;;;;;;2.35;0.60;;;;;;;;;;5010272;28;20042;-56
2021/08/05 06:02:38;;;;;;;1.20;0.60;;;;;;;;;;5009195;28;20046;-56
2021/08/05 06:05:06;;;;;;;1.17;0.70;;;;;;;;;;5010490;28;20041;-56
2021/08/05 06:07:42;;;;;;;1.70;0.70;;;;;;;;;;5011665;28;20583;-56
2021/08/05 06:10:11;;;;;;;0.95;0.60;;;;;;;;;;5011044;28;20053;-55
2021/08/05 06:12:37;;;;;;;1.55;0.70;;;;;;;;;;5010504;28;20458;-56
2021/08/05 06:15:04;;;;;;;1.05;1.05;;;;;;;;;;5007306;28;20089;-55
2021/08/05 06:17:31;;;;;;;0.60;0.60;;;;;;;;;;5008606;28;20054;-56
2021/08/05 06:19:58;;;;;;;0.70;0.60;;;;;;;;;;5001726;28;20038;-55
2021/08/05 06:22:25;;;;;;;0.60;0.60;;;;;;;;;;5010990;28;20530;-55
2021/08/05 06:24:51;;;;;;;2.33;0.63;;;;;;;;;;5009126;28;20034;-55
2021/08/05 06:27:22;;;;;;;0.60;0.60;;;;;;;;;;5013133;28;20549;-55
2021/08/05 06:29:49;;;;;;;1.15;0.70;;;;;;;;;;5006662;28;20105;-56
2021/08/05 06:32:16;;;;;;;0.68;0.60;;;;;;;;;;4997379;28;20053;-56
2021/08/05 06:34:43;;;;;;;2.70;0.65;;;;;;;;;;5001609;28;20051;-55
2021/08/05 06:37:09;;;;;;;0.95;0.70;;;;;;;;;;5003404;28;20129;-55
2021/08/05 06:39:36;;;;;;;2.17;1.20;;;;;;;;;;5011841;28;20037;-55
2021/08/05 06:42:03;;;;;;;1.92;0.60;;;;;;;;;;5005792;28;20530;-55
2021/08/05 06:44:34;;;;;;;0.63;0.60;;;;;;;;;;5003158;28;20076;-55
2021/08/05 06:47:02;;;;;;;1.52;0.73;;;;;;;;;;4998789;28;20038;-55
2021/08/05 06:49:29;;;;;;;1.20;1.05;;;;;;;;;;5007074;28;20754;-54
2021/08/05 06:51:56;;;;;;;1.00;0.90;;;;;;;;;;4993238;28;20042;-56
2021/08/05 06:54:23;;;;;;;2.10;0.60;;;;;;;;;;5004090;28;20026;-55
2021/08/05 06:56:50;;;;;;;2.08;0.65;;;;;;;;;;5001672;28;20060;-55
2021/08/05 06:59:17;;;;;;;2.90;0.70;;;;;;;;;;5000406;28;20403;-55
2021/08/05 07:01:43;;;;;;;4.15;0.70;;;;;;;;;;5010582;28;20048;-55
2021/08/05 07:04:11;;;;;;;2.58;0.60;;;;;;;;;;4995803;28;20727;-55
2021/08/05 07:06:38;;;;;;;1.90;0.70;;;;;;;;;;5011140;28;20053;-55
2021/08/05 07:09:05;;;;;;;2.78;0.60;;;;;;;;;;5009628;28;20046;-55
2021/08/05 07:11:32;;;;;;;4.65;0.95;;;;;;;;;;4996255;28;20084;-55
2021/08/05 07:13:58;;;;;;;0.70;0.70;;;;;;;;;;5005492;28;20038;-54
2021/08/05 07:16:25;;;;;;;0.82;0.60;;;;;;;;;;5002846;28;20054;-55
2021/08/05 07:18:52;;;;;;;1.33;0.60;;;;;;;;;;5007115;28;20046;-54
2021/08/05 07:21:19;;;;;;;1.60;0.60;;;;;;;;;;5009661;28;20046;-55
2021/08/05 07:23:46;;;;;;;0.90;0.60;;;;;;;;;;5011281;28;20144;-56
2021/08/05 07:26:13;;;;;;;0.50;0.50;;;;;;;;;;5006394;28;20604;-55
2021/08/05 07:28:39;;;;;;;1.20;0.60;;;;;;;;;;4993720;28;20597;-55
2021/08/05 07:31:06;;;;;;;2.00;0.60;;;;;;;;;;5002994;28;20050;-55
2021/08/05 07:33:33;;;;;;;0.95;0.55;;;;;;;;;;5008551;28;20077;-55
2021/08/05 07:36:00;;;;;;;1.42;0.52;;;;;;;;;;5010454;28;20053;-55
2021/08/05 07:38:27;;;;;;;0.70;0.60;;;;;;;;;;5004167;28;20034;-55
2021/08/05 07:40:53;;;;;;;1.88;0.80;;;;;;;;;;4998853;28;20042;-55
2021/08/05 07:43:20;;;;;;;2.35;0.55;;;;;;;;;;4999994;28;20069;-55
2021/08/05 07:45:47;;;;;;;2.05;0.68;;;;;;;;;;5002900;28;20146;-55
2021/08/05 07:48:13;;;;;;;3.75;0.60;;;;;;;;;;5000006;28;20089;-56
2021/08/05 07:50:40;;;;;;;1.35;0.60;;;;;;;;;;5008262;28;20065;-55
2021/08/05 07:53:07;;;;;;;1.02;0.50;;;;;;;;;;5009084;28;20092;-56
2021/08/05 07:55:34;;;;;;;1.85;0.52;;;;;;;;;;5011316;28;20042;-55
2021/08/05 07:58:04;;;;;;;4.03;0.60;;;;;;;;;;5007751;28;20045;-55
2021/08/05 08:00:35;;;;;;;2.92;0.60;;;;;;;;;;5007609;28;20056;-56
2021/08/05 08:03:03;;;;;;;0.57;0.57;;;;;;;;;;5005175;28;20042;-55
2021/08/05 08:05:30;;;;;;;1.48;0.60;;;;;;;;;;5009613;28;20057;-55
2021/08/05 08:07:59;;;;;;;1.13;0.55;;;;;;;;;;4994376;28;20070;-55
2021/08/05 08:10:26;;;;;;;0.55;0.55;;;;;;;;;;5006612;28;20096;-56
2021/08/05 08:12:54;;;;;;;0.73;0.60;;;;;;;;;;5007330;28;20475;-56
2021/08/05 08:15:24;;;;;;;1.58;0.60;;;;;;;;;;5001211;28;20047;-55
2021/08/05 08:17:51;;;;;;;2.67;0.55;;;;;;;;;;5006651;28;20038;-56
2021/08/05 08:20:19;;;;;;;2.35;0.60;;;;;;;;;;4996304;28;20383;-55
2021/08/05 08:22:46;;;;;;;0.60;0.60;;;;;;;;;;5002722;28;20050;-54
2021/08/05 08:25:14;;;;;;;10.25;1.48;;;;;;;;;;4994378;28;20045;-55
2021/08/05 08:27:42;;;;;;;3.30;0.55;;;;;;;;;;5009981;28;20048;-55
2021/08/05 08:30:10;;;;;;;1.17;0.60;;;;;;;;;;5008414;28;20135;-56
2021/08/05 08:32:38;;;;;;;1.13;0.50;;;;;;;;;;5009844;28;20068;-55
2021/08/05 08:35:05;;;;;;;0.77;0.77;;;;;;;;;;5005136;28;20057;-55
2021/08/05 08:37:32;;;;;;;1.42;0.55;;;;;;;;;;5008522;28;20184;-56
2021/08/05 08:39:58;;;;;;;0.50;0.50;;;;;;;;;;5009371;28;20037;-55
2021/08/05 08:42:25;;;;;;;1.27;0.82;;;;;;;;;;5008549;28;20041;-55
2021/08/05 08:44:52;;;;;;;1.38;0.50;;;;;;;;;;4992228;28;20108;-56
2021/08/05 08:47:21;;;;;;;0.60;0.52;;;;;;;;;;5003486;28;20046;-56
2021/08/05 08:49:49;;;;;;;1.75;0.60;;;;;;;;;;4998948;28;20046;-56
2021/08/05 08:52:17;;;;;;;2.33;0.50;;;;;;;;;;4995594;28;20039;-55
2021/08/05 08:54:45;;;;;;;2.55;0.50;;;;;;;;;;5009183;28;20033;-55
2021/08/05 08:57:13;;;;;;;0.50;0.50;;;;;;;;;;5012189;28;20046;-56
2021/08/05 08:59:40;;;;;;;1.65;0.60;;;;;;;;;;5004677;28;20443;-55
2021/08/05 09:02:12;;;;;;;1.13;0.60;;;;;;;;;;5009197;28;20072;-56
2021/08/05 09:04:40;;;;;;;1.50;0.60;;;;;;;;;;4996161;28;20050;-55
2021/08/05 09:07:07;;;;;;;1.10;0.60;;;;;;;;;;5007618;28;20422;-55
2021/08/05 09:09:33;;;;;;;0.50;0.50;;;;;;;;;;5011879;28;20038;-55
2021/08/05 09:12:00;;;;;;;4.53;0.60;;;;;;;;;;5002626;28;20126;-56
2021/08/05 09:14:41;;;;;;;2.10;0.60;;;;;;;;;;5006008;28;20512;-55
2021/08/05 09:17:15;;;;;;;1.00;0.50;;;;;;;;;;5012435;28;20069;-56
2021/08/05 09:19:42;;;;;;;1.80;0.50;;;;;;;;;;5010765;28;20128;-54
2021/08/05 09:22:08;;;;;;;2.47;0.68;;;;;;;;;;5011323;28;20092;-55
2021/08/05 09:24:35;;;;;;;0.82;0.50;;;;;;;;;;4999525;28;20100;-55
2021/08/05 09:27:03;;;;;;;1.88;0.50;;;;;;;;;;5008034;28;20088;-55
2021/08/05 09:29:30;;;;;;;2.97;0.50;;;;;;;;;;5010577;28;20046;-54
2021/08/05 09:31:58;;;;;;;3.28;0.77;;;;;;;;;;5003035;28;20050;-55
2021/08/05 09:34:32;;;;;;;1.58;0.82;;;;;;;;;;5003140;28;20080;-55
2021/08/05 09:37:00;;;;;;;0.80;0.50;;;;;;;;;;5012487;28;20453;-56
2021/08/05 09:39:31;;;;;;;1.02;0.50;;;;;;;;;;5012201;28;20510;-55
2021/08/05 09:41:59;;;;;;;1.27;0.63;;;;;;;;;;5010828;28;20050;-55
2021/08/05 09:44:28;;;;;;;0.50;0.50;;;;;;;;;;5001710;28;20165;-55
2021/08/05 09:47:01;;;;;;;1.95;0.50;;;;;;;;;;5007282;28;20116;-55
2021/08/05 09:49:29;;;;;;;0.70;0.50;;;;;;;;;;5002946;28;20107;-54
2021/08/05 09:51:56;;;;;;;0.55;0.52;;;;;;;;;;5007953;28;20637;-55
2021/08/05 09:54:35;;;;;;;0.65;0.65;;;;;;;;;;5002754;28;20033;-55
2021/08/05 09:57:02;;;;;;;1.52;0.55;;;;;;;;;;4996471;28;20048;-56
2021/08/05 09:59:29;;;;;;;1.00;0.60;;;;;;;;;;5005720;28;20427;-55
2021/08/05 10:01:59;;;;;;;1.42;0.60;;;;;;;;;;5000219;28;20549;-56
2021/08/05 10:04:28;;;;;;;1.75;0.93;;;;;;;;;;5012447;28;20377;-55
2021/08/05 10:06:56;;;;;;;1.38;0.60;;;;;;;;;;5010638;28;20065;-56
2021/08/05 10:09:23;;;;;;;1.48;0.60;;;;;;;;;;5008465;28;20048;-54
2021/08/05 10:11:49;;;;;;;0.82;0.57;;;;;;;;;;5008652;28;20033;-56
2021/08/05 10:14:20;;;;;;;0.60;0.50;;;;;;;;;;5010769;28;20041;-54
2021/08/05 10:16:51;;;;;;;0.50;0.50;;;;;;;;;;5006161;28;20042;-55
2021/08/05 10:19:19;;;;;;;0.73;0.70;;;;;;;;;;5003643;28;20057;-55
2021/08/05 10:21:46;;;;;;;0.70;0.50;;;;;;;;;;4996996;28;20046;-55
2021/08/05 10:24:14;;;;;;;1.60;0.60;;;;;;;;;;5008741;28;20378;-55
2021/08/05 10:26:41;;;;;;;2.85;0.50;;;;;;;;;;5008654;28;20125;-55
2021/08/05 10:29:10;;;;;;;0.60;0.40;;;;;;;;;;5012056;28;20046;-55
2021/08/05 10:31:39;;;;;;;0.68;0.50;;;;;;;;;;5009357;28;20042;-55
2021/08/05 10:34:06;;;;;;;1.58;0.60;;;;;;;;;;5004972;28;20483;-55
2021/08/05 10:36:33;;;;;;;0.95;0.45;;;;;;;;;;5005596;28;20066;-55
2021/08/05 10:38:59;;;;;;;0.95;0.57;;;;;;;;;;5002722;28;20659;-55
2021/08/05 10:41:28;;;;;;;1.05;0.75;;;;;;;;;;5010080;28;20042;-55
2021/08/05 10:43:55;;;;;;;2.13;0.60;;;;;;;;;;5009779;28;20046;-55
2021/08/05 10:46:22;;;;;;;2.13;0.90;;;;;;;;;;5004495;28;20386;-55
2021/08/05 10:48:49;;;;;;;6.93;0.55;;;;;;;;;;5009928;28;20065;-55
2021/08/05 10:51:16;;;;;;;1.92;0.50;;;;;;;;;;5009767;28;20038;-54
2021/08/05 10:53:44;;;;;;;2.00;0.93;;;;;;;;;;5009926;28;20026;-56
2021/08/05 10:56:21;;;;;;;0.98;0.60;;;;;;;;;;5010018;28;20524;-55
2021/08/05 10:59:14;;;;;;;0.50;0.50;;;;;;;;;;5000502;28;20042;-56
2021/08/05 11:01:46;;;;;;;0.73;0.50;;;;;;;;;;5027219;28;20129;-55
2021/08/05 11:04:28;;;;;;;1.23;0.60;;;;;;;;;;5026781;28;20067;-54
2021/08/05 11:06:55;;;;;;;2.50;0.50;;;;;;;;;;5024598;28;20069;-55
2021/08/05 11:09:26;;;;;;;0.55;0.50;;;;;;;;;;5029410;28;20532;-55
2021/08/05 11:11:53;;;;;;;0.50;0.50;;;;;;;;;;5030071;28;20081;-55
2021/08/05 11:14:26;;;;;;;0.93;0.50;;;;;;;;;;5027905;28;20038;-55
2021/08/05 11:17:00;;;;;;;0.60;0.50;;;;;;;;;;5024632;28;20103;-55
2021/08/05 11:19:31;;;;;;;1.10;0.50;;;;;;;;;;5026829;28;20045;-55
2021/08/05 11:22:17;;;;;;;0.50;0.40;;;;;;;;;;5027703;28;20037;-56
2021/08/05 11:24:47;;;;;;;1.88;0.47;;;;;;;;;;5026368;28;20041;-55
2021/08/05 11:27:17;;;;;;;1.10;0.82;;;;;;;;;;5026446;28;20072;-55
2021/08/05 11:29:45;;;;;;;1.40;0.40;;;;;;;;;;5027749;28;20052;-55
2021/08/05 11:32:20;;;;;;;0.98;0.40;;;;;;;;;;5026764;28;20062;-55
2021/08/05 11:34:57;;;;;;;0.50;0.50;;;;;;;;;;5026146;28;20045;-55
2021/08/05 11:37:24;;;;;;;1.35;0.40;;;;;;;;;;5026491;28;20390;-55
2021/08/05 11:39:51;;;;;;;2.67;1.00;;;;;;;;;;4999372;28;20046;-47
2021/08/05 11:42:19;;;;;;;1.40;0.45;;;;;;;;;;4996121;28;20442;-51
2021/08/05 11:44:48;;;;;;;0.88;0.50;;;;;;;;;;5005110;28;20099;-50
2021/08/05 11:47:22;;;;;;;0.70;0.40;;;;;;;;;;5007852;28;20038;-47
2021/08/05 11:50:00;;;;;;;3.15;0.50;;;;;;;;;;5005924;28;20490;-49
2021/08/05 11:52:27;;;;;;;2.10;0.40;;;;;;;;;;5002592;28;20040;-47
2021/08/05 11:55:02;;;;;;;1.38;0.40;;;;;;;;;;5009344;28;20595;-49
2021/08/05 11:57:35;;;;;;;1.45;0.40;;;;;;;;;;5004367;28;20105;-52
2021/08/05 12:00:03;;;;;;;0.50;0.50;;;;;;;;;;4998396;28;20588;-48
2021/08/05 12:02:32;;;;;;;1.02;0.40;;;;;;;;;;5006490;28;20058;-51
2021/08/05 12:04:59;;;;;;;0.90;0.40;;;;;;;;;;5004953;28;20077;-47
2021/08/05 12:07:57;;;;;;;0.85;0.40;;;;;;;;;;5006174;28;20049;-46
2021/08/05 12:10:26;;;;;;;0.52;0.40;;;;;;;;;;5006609;28;20560;-47
2021/08/05 12:12:54;;;;;;;1.33;0.40;;;;;;;;;;5005017;28;20038;-51
2021/08/05 12:15:27;;;;;;;1.67;0.40;;;;;;;;;;5007086;28;20053;-47
2021/08/05 12:17:54;;;;;;;0.70;0.40;;;;;;;;;;5006356;28;20060;-49
2021/08/05 12:20:27;;;;;;;1.88;0.40;;;;;;;;;;5004583;28;20112;-47
2021/08/05 12:22:55;;;;;;;0.85;0.40;;;;;;;;;;5000449;28;20057;-51
2021/08/05 12:25:22;;;;;;;0.68;0.40;;;;;;;;;;5004597;28;20498;-50
2021/08/05 12:27:53;;;;;;;3.72;0.50;;;;;;;;;;5004354;28;20050;-51
2021/08/05 12:30:20;;;;;;;2.25;0.50;;;;;;;;;;5007146;28;20034;-47
2021/08/05 12:32:58;;;;;;;5.72;0.50;;;;;;;;;;5003724;28;20081;-51
2021/08/05 12:35:25;;;;;;;0.40;0.40;;;;;;;;;;5001547;28;20076;-48
2021/08/05 12:38:02;;;;;;;4.13;0.50;;;;;;;;;;5007829;28;20120;-48
2021/08/05 12:40:29;;;;;;;1.90;0.50;;;;;;;;;;5002609;28;20068;-49
2021/08/05 12:42:57;;;;;;;4.32;0.40;;;;;;;;;;5005727;28;20097;-48
2021/08/05 12:45:25;;;;;;;1.55;0.50;;;;;;;;;;5003094;28;20046;-50
2021/08/05 12:47:52;;;;;;;5.38;1.05;;;;;;;;;;5012309;28;20090;-51
2021/08/05 12:50:18;;;;;;;2.22;0.50;;;;;;;;;;5005391;28;20043;-47
2021/08/05 12:52:45;;;;;;;1.00;0.40;;;;;;;;;;5006915;28;20441;-50
2021/08/05 12:55:12;;;;;;;1.33;0.63;;;;;;;;;;5006963;28;20042;-48
2021/08/05 12:57:39;;;;;;;0.82;0.40;;;;;;;;;;5007619;28;20037;-50
2021/08/05 13:00:24;;;;;;;2.40;0.43;;;;;;;;;;5008411;28;20050;-50
2021/08/05 13:03:04;;;;;;;4.88;0.90;;;;;;;;;;4999840;28;20077;-49
2021/08/05 13:05:31;;;;;;;1.30;0.50;;;;;;;;;;5001132;28;20487;-46
2021/08/05 13:07:58;;;;;;;3.92;0.50;;;;;;;;;;5006467;28;20410;-50
2021/08/05 13:10:41;;;;;;;1.20;0.40;;;;;;;;;;5006579;28;20605;-48
2021/08/05 13:13:08;;;;;;;;;;;;;;;;;;5004756;28;20124;-50
2021/08/05 13:15:35;;;;;;;2.50;0.40;;;;;;;;;;5006830;28;19929;-49
2021/08/05 13:18:03;;;;;;;0.80;0.50;;;;;;;;;;5004064;28;20038;-49
2021/08/05 13:20:31;;;;;;;2.45;0.50;;;;;;;;;;5006157;28;20038;-48
2021/08/05 13:22:58;;;;;;;0.82;0.57;;;;;;;;;;5007735;28;20076;-49
2021/08/05 13:25:41;;;;;;;1.85;0.60;;;;;;;;;;5008541;28;20053;-46
2021/08/05 13:28:07;;;;;;;;;;;;;;;;;;5008818;28;20390;-48
2021/08/05 13:30:35;;;;;;;1.17;0.45;;;;;;;;;;5007568;28;19925;-50
2021/08/05 13:33:14;;;;;;;1.38;0.50;;;;;;;;;;5005314;28;20054;-48
2021/08/05 13:35:44;;;;;;;1.00;0.50;;;;;;;;;;5007766;28;20057;-49
2021/08/05 13:38:11;;;;;;;0.40;0.40;;;;;;;;;;5006362;28;20042;-47
2021/08/05 13:40:37;;;;;;;1.45;0.50;;;;;;;;;;5009377;28;20030;-50
2021/08/05 13:43:08;;;;;;;1.45;0.40;;;;;;;;;;5003355;28;20596;-48
2021/08/05 13:45:35;;;;;;;1.63;0.50;;;;;;;;;;5001304;28;20045;-50
2021/08/05 13:48:02;;;;;;;1.10;0.50;;;;;;;;;;5014264;28;20046;-48
2021/08/05 13:50:30;;;;;;;2.22;0.63;;;;;;;;;;5008472;28;20045;-48
2021/08/05 13:52:59;;;;;;;2.38;0.50;;;;;;;;;;5010314;28;20447;-53
2021/08/05 13:55:25;;;;;;;1.63;0.50;;;;;;;;;;5011908;28;20639;-48
2021/08/05 13:57:52;;;;;;;1.35;0.88;;;;;;;;;;5010380;28;20038;-47
2021/08/05 14:00:20;;;;;;;2.08;0.43;;;;;;;;;;5004071;28;20063;-51
2021/08/05 14:02:48;;;;;;;1.13;0.50;;;;;;;;;;5009242;28;20073;-50
2021/08/05 14:05:17;;;;;;;2.72;0.50;;;;;;;;;;5005985;28;20050;-50
2021/08/05 14:07:44;;;;;;;0.73;0.50;;;;;;;;;;5011774;28;20068;-49
2021/08/05 14:10:12;;;;;;;3.42;0.50;;;;;;;;;;5007195;28;20072;-47
2021/08/05 14:12:39;;;;;;;1.05;0.50;;;;;;;;;;5005751;28;20121;-49
2021/08/05 14:15:07;;;;;;;3.13;0.50;;;;;;;;;;5007833;28;20038;-49
2021/08/05 14:17:34;;;;;;;1.77;0.50;;;;;;;;;;5009625;28;20050;-47
2021/08/05 14:20:01;;;;;;;0.50;0.50;;;;;;;;;;5007287;28;20068;-47
2021/08/05 14:22:27;;;;;;;3.97;0.65;;;;;;;;;;5009681;28;20081;-51
2021/08/05 14:24:54;;;;;;;3.20;0.60;;;;;;;;;;5009953;28;20045;-47
2021/08/05 14:27:23;;;;;;;0.75;0.45;;;;;;;;;;5007009;28;20759;-50
2021/08/05 14:29:49;;;;;;;1.58;0.45;;;;;;;;;;5021168;28;20042;-48
2021/08/05 14:32:16;;;;;;;1.60;0.40;;;;;;;;;;5009528;28;20117;-50
2021/08/05 14:34:43;;;;;;;0.70;0.43;;;;;;;;;;5000951;28;20478;-49
2021/08/05 14:37:10;;;;;;;2.45;0.50;;;;;;;;;;5012616;28;20073;-47
2021/08/05 14:39:36;;;;;;;1.33;0.50;;;;;;;;;;5007213;28;20080;-50
2021/08/05 14:42:03;;;;;;;4.57;1.30;;;;;;;;;;5008852;28;20500;-51
2021/08/05 14:44:30;;;;;;;3.35;0.75;;;;;;;;;;5001493;28;20050;-48
2021/08/05 14:46:57;;;;;;;1.55;0.50;;;;;;;;;;5001712;28;20080;-48
2021/08/05 14:49:24;;;;;;;0.47;0.40;;;;;;;;;;5001315;28;20442;-48
2021/08/05 14:51:51;;;;;;;1.70;0.40;;;;;;;;;;5004593;28;20728;-50
2021/08/05 14:54:18;;;;;;;1.13;0.40;;;;;;;;;;4998175;28;20347;-49